Terminal Aerodrome Forecast
Issued by NWS Sioux Falls, SD

Home | Current Version | Previous Version | Graphics & Text | Print | Product List | Glossary Off
Versions: 1 2 3 4 5 6 7 8 9 10 11 12 13

000
FTUS43 KFSD 272338
TAFHON
TAF
KHON 272338Z 2800/2824 14008KT P6SM SKC
     FM280400 16013KT P6SM SKC
     FM281200 16014KT P6SM SCT100 BKN200
     FM281800 18012KT P6SM SCT035 BKN200=

USA.gov is the U.S. government's official web portal to all federal, state and local government web resources and services.